createdAt,value
2022-11-10T00:00:23.411Z,0.00
2022-11-10T00:01:23.393Z,0.00
2022-11-10T00:02:23.377Z,0.00
2022-11-10T00:03:23.656Z,0.00
2022-11-10T00:04:23.400Z,0.00
2022-11-10T00:05:23.356Z,0.00
2022-11-10T00:06:23.328Z,0.00
2022-11-10T00:07:23.315Z,0.00
2022-11-10T00:08:23.302Z,0.00
2022-11-10T00:09:23.291Z,0.00
2022-11-10T00:10:23.327Z,0.00
2022-11-10T00:11:23.293Z,0.00
2022-11-10T00:12:23.260Z,0.00
2022-11-10T00:13:23.625Z,0.00
2022-11-10T00:14:23.235Z,0.00
2022-11-10T00:15:23.228Z,0.00
2022-11-10T00:16:23.227Z,0.00
2022-11-10T00:17:23.203Z,0.00
2022-11-10T00:18:23.206Z,0.00
2022-11-10T00:19:23.181Z,0.00
2022-11-10T00:20:23.179Z,0.00
2022-11-10T00:21:23.185Z,0.00
2022-11-10T00:22:26.011Z,0.00
2022-11-10T00:23:23.504Z,0.00
2022-11-10T00:24:23.127Z,0.00
2022-11-10T00:25:23.127Z,0.00
2022-11-10T00:26:23.111Z,0.00
2022-11-10T00:27:23.118Z,0.00
2022-11-10T00:28:23.085Z,0.00
2022-11-10T00:29:23.069Z,0.00
2022-11-10T00:30:23.056Z,0.00
2022-11-10T00:31:23.068Z,0.00
2022-11-10T00:32:23.031Z,0.00
2022-11-10T00:33:23.364Z,0.00
2022-11-10T00:34:23.011Z,0.00
2022-11-10T00:35:23.019Z,0.00
2022-11-10T00:36:23.020Z,0.00
2022-11-10T00:37:22.985Z,0.00
2022-11-10T00:38:22.972Z,0.00
2022-11-10T00:39:22.957Z,0.00
2022-11-10T00:40:22.946Z,0.00
2022-11-10T00:41:22.936Z,0.00
2022-11-10T00:42:22.935Z,0.00
2022-11-10T00:43:26.583Z,0.00
2022-11-10T00:44:22.908Z,0.00
2022-11-10T00:45:22.894Z,0.00
2022-11-10T00:46:22.888Z,0.00
2022-11-10T00:47:22.882Z,0.00
2022-11-10T00:48:22.862Z,0.00
2022-11-10T00:49:22.849Z,0.00
2022-11-10T00:50:22.839Z,0.00
2022-11-10T00:51:22.829Z,0.00
2022-11-10T00:52:22.832Z,0.00
2022-11-10T00:53:23.278Z,0.00
2022-11-10T00:54:22.785Z,0.00
2022-11-10T00:55:22.777Z,0.00
2022-11-10T00:56:22.765Z,0.00
2022-11-10T00:57:22.767Z,0.00
2022-11-10T00:58:22.749Z,0.00
2022-11-10T00:59:22.758Z,0.00
2022-11-10T01:00:22.736Z,0.00
2022-11-10T01:01:22.726Z,0.00
2022-11-10T01:02:22.718Z,0.00
2022-11-10T01:03:23.234Z,0.00
2022-11-10T01:04:22.674Z,0.00
2022-11-10T01:05:22.671Z,0.00
2022-11-10T01:06:22.659Z,0.00
2022-11-10T01:07:22.661Z,0.00
2022-11-10T01:08:22.631Z,0.00
2022-11-10T01:09:22.632Z,0.00
2022-11-10T01:10:22.607Z,0.00
2022-11-10T01:11:22.604Z,0.00
2022-11-10T01:12:22.608Z,0.00
2022-11-10T01:13:22.895Z,0.00
2022-11-10T01:14:22.566Z,0.00
2022-11-10T01:15:27.311Z,0.00
2022-11-10T01:16:23.540Z,0.00
2022-11-10T01:17:22.551Z,0.00
2022-11-10T01:18:22.517Z,0.00
2022-11-10T01:19:22.506Z,0.00
2022-11-10T01:20:22.501Z,0.00
2022-11-10T01:21:22.481Z,0.00
2022-11-10T01:22:22.499Z,0.00
2022-11-10T01:23:22.933Z,0.00
2022-11-10T01:24:22.450Z,0.00
2022-11-10T01:25:22.438Z,0.00
2022-11-10T01:26:22.426Z,0.00
2022-11-10T01:27:22.431Z,0.00
2022-11-10T01:28:22.402Z,0.00
2022-11-10T01:29:22.397Z,0.00
2022-11-10T01:30:22.388Z,0.00
2022-11-10T01:31:22.395Z,0.00
2022-11-10T01:32:22.379Z,0.00
2022-11-10T01:33:22.615Z,0.00
2022-11-10T01:34:22.342Z,0.00
2022-11-10T01:35:22.332Z,0.00
2022-11-10T01:36:22.320Z,0.00
2022-11-10T01:37:22.317Z,0.00
2022-11-10T01:38:22.298Z,0.00
2022-11-10T01:39:22.286Z,0.00
2022-11-10T01:40:22.386Z,0.00
2022-11-10T01:41:22.264Z,0.00
2022-11-10T01:42:22.276Z,0.00
2022-11-10T01:43:22.673Z,0.00
2022-11-10T01:44:22.235Z,0.00
2022-11-10T01:45:22.220Z,0.00
2022-11-10T01:46:22.198Z,0.00
2022-11-10T01:47:22.231Z,0.00
2022-11-10T01:48:22.186Z,0.00
2022-11-10T01:49:22.203Z,0.00
2022-11-10T01:50:22.159Z,0.00
2022-11-10T01:51:22.147Z,0.00
2022-11-10T01:52:22.154Z,0.00
2022-11-10T01:53:22.440Z,0.00
2022-11-10T01:54:22.116Z,0.00
2022-11-10T01:55:22.099Z,0.00
2022-11-10T01:56:22.094Z,0.00
2022-11-10T01:57:22.107Z,0.00
2022-11-10T01:58:22.067Z,0.00
2022-11-10T01:59:22.063Z,0.00
2022-11-10T02:00:22.050Z,0.00
2022-11-10T02:01:22.082Z,0.00
2022-11-10T02:02:22.046Z,0.00
2022-11-10T02:03:22.481Z,0.00
2022-11-10T02:04:21.998Z,0.00
2022-11-10T02:05:21.993Z,0.00
2022-11-10T02:06:21.974Z,0.00
2022-11-10T02:07:21.982Z,0.00
2022-11-10T02:08:21.960Z,0.00
2022-11-10T02:09:21.949Z,0.00
2022-11-10T02:10:21.932Z,0.00
2022-11-10T02:11:21.924Z,0.00
2022-11-10T02:12:21.923Z,0.00
2022-11-10T02:13:22.222Z,0.00
2022-11-10T02:14:21.892Z,0.00
2022-11-10T02:15:21.881Z,0.00
2022-11-10T02:16:21.869Z,0.00
2022-11-10T02:17:21.963Z,0.00
2022-11-10T02:18:21.840Z,0.00
2022-11-10T02:19:21.858Z,0.00
2022-11-10T02:20:21.825Z,0.00
2022-11-10T02:21:21.812Z,0.00
2022-11-10T02:22:21.816Z,0.00
2022-11-10T02:23:22.105Z,0.00
2022-11-10T02:24:21.777Z,0.00
2022-11-10T02:25:21.758Z,0.00
2022-11-10T02:26:21.755Z,0.00
2022-11-10T02:27:21.758Z,0.00
2022-11-10T02:28:21.735Z,0.00
2022-11-10T02:29:21.731Z,0.00
2022-11-10T02:30:26.508Z,0.00
2022-11-10T02:31:22.698Z,0.00
2022-11-10T02:32:21.704Z,0.00
2022-11-10T02:33:22.073Z,0.00
2022-11-10T02:34:21.675Z,0.00
2022-11-10T02:35:21.669Z,0.00
2022-11-10T02:36:21.634Z,0.00
2022-11-10T02:37:21.633Z,0.00
2022-11-10T02:38:21.633Z,0.00
2022-11-10T02:39:21.603Z,0.00
2022-11-10T02:40:21.598Z,0.00
2022-11-10T02:41:21.581Z,0.00
2022-11-10T02:42:21.568Z,0.00
2022-11-10T02:43:21.942Z,0.00
2022-11-10T02:44:21.555Z,0.00
2022-11-10T02:45:21.544Z,0.00
2022-11-10T02:46:21.523Z,0.00
2022-11-10T02:47:21.518Z,0.00
2022-11-10T02:48:21.536Z,0.00
2022-11-10T02:49:21.493Z,0.00
2022-11-10T02:50:21.485Z,0.00
2022-11-10T02:51:21.497Z,0.00
2022-11-10T02:52:21.459Z,0.00
2022-11-10T02:53:21.855Z,0.00
2022-11-10T02:54:21.438Z,0.00
2022-11-10T02:55:21.431Z,0.00
2022-11-10T02:56:21.411Z,0.00
2022-11-10T02:57:21.408Z,0.00
2022-11-10T02:58:21.402Z,0.00
2022-11-10T02:59:21.385Z,0.00
2022-11-10T03:00:21.374Z,0.00
2022-11-10T03:01:21.417Z,0.00
2022-11-10T03:02:21.354Z,0.00
2022-11-10T03:03:21.773Z,0.00
2022-11-10T03:04:21.321Z,0.00
2022-11-10T03:05:21.326Z,0.00
2022-11-10T03:06:21.308Z,0.00
2022-11-10T03:07:21.308Z,0.00
2022-11-10T03:08:21.315Z,0.00
2022-11-10T03:09:21.270Z,0.00
2022-11-10T03:10:21.253Z,0.00
2022-11-10T03:11:21.276Z,0.00
2022-11-10T03:12:21.239Z,0.00
2022-11-10T03:13:21.568Z,0.00
2022-11-10T03:14:21.241Z,0.00
2022-11-10T03:15:21.194Z,0.00
2022-11-10T03:16:21.184Z,0.00
2022-11-10T03:17:21.191Z,0.00
2022-11-10T03:18:21.189Z,0.00
2022-11-10T03:19:21.165Z,0.00
2022-11-10T03:20:21.149Z,0.00
2022-11-10T03:21:21.129Z,0.00
2022-11-10T03:22:21.125Z,0.00
2022-11-10T03:23:21.614Z,0.00
2022-11-10T03:24:21.117Z,0.00
2022-11-10T03:25:21.102Z,0.00
2022-11-10T03:26:21.082Z,0.00
2022-11-10T03:27:21.067Z,0.00
2022-11-10T03:28:21.054Z,0.00
2022-11-10T03:29:21.050Z,0.00
2022-11-10T03:30:21.034Z,0.00
2022-11-10T03:31:21.016Z,0.00
2022-11-10T03:32:21.002Z,0.00
2022-11-10T03:33:21.437Z,0.00
2022-11-10T03:34:21.016Z,0.00
2022-11-10T03:35:20.972Z,0.00
2022-11-10T03:36:20.986Z,0.00
2022-11-10T03:37:20.947Z,0.00
2022-11-10T03:38:20.948Z,0.00
2022-11-10T03:39:20.945Z,0.00
2022-11-10T03:40:20.933Z,0.00
2022-11-10T03:41:21.149Z,0.00
2022-11-10T03:42:20.901Z,0.00
2022-11-10T03:43:21.251Z,0.00
2022-11-10T03:44:20.870Z,0.00
2022-11-10T03:45:20.884Z,0.00
2022-11-10T03:46:20.854Z,0.00
2022-11-10T03:47:20.852Z,0.00
2022-11-10T03:48:20.846Z,0.00
2022-11-10T03:49:20.821Z,0.00
2022-11-10T03:50:20.826Z,0.00
2022-11-10T03:51:20.800Z,0.00
2022-11-10T03:52:20.785Z,0.00
2022-11-10T03:53:21.081Z,0.00
2022-11-10T03:54:20.762Z,0.00
2022-11-10T03:55:20.781Z,0.00
2022-11-10T03:56:20.742Z,0.00
2022-11-10T03:57:20.723Z,0.00
2022-11-10T03:58:20.720Z,0.00
2022-11-10T03:59:20.705Z,0.00
2022-11-10T04:00:20.707Z,0.00
2022-11-10T04:01:20.738Z,0.00
2022-11-10T04:02:20.674Z,0.00
2022-11-10T04:03:21.163Z,0.00
2022-11-10T04:04:20.657Z,0.00
2022-11-10T04:05:20.669Z,0.00
2022-11-10T04:06:20.628Z,0.00
2022-11-10T04:07:20.613Z,0.00
2022-11-10T04:08:20.618Z,0.00
2022-11-10T04:09:20.590Z,0.00
2022-11-10T04:10:20.597Z,0.00
2022-11-10T04:11:20.594Z,0.00
2022-11-10T04:12:24.591Z,0.00
2022-11-10T04:13:20.845Z,0.00
2022-11-10T04:14:20.538Z,0.00
2022-11-10T04:15:20.531Z,0.00
2022-11-10T04:16:20.517Z,0.00
2022-11-10T04:17:20.508Z,0.00
2022-11-10T04:18:20.493Z,0.00
2022-11-10T04:19:20.477Z,0.00
2022-11-10T04:20:20.479Z,0.00
2022-11-10T04:21:20.459Z,0.00
2022-11-10T04:22:20.448Z,0.00
2022-11-10T04:23:20.888Z,0.00
2022-11-10T04:24:20.423Z,0.00
2022-11-10T04:25:20.431Z,0.00
2022-11-10T04:26:20.405Z,0.00
2022-11-10T04:27:20.407Z,0.00
2022-11-10T04:28:20.385Z,0.00
2022-11-10T04:29:20.363Z,0.00
2022-11-10T04:30:20.382Z,0.00
2022-11-10T04:31:20.345Z,0.00
2022-11-10T04:32:20.339Z,0.00
2022-11-10T04:33:20.691Z,0.00
2022-11-10T04:34:20.314Z,0.00
2022-11-10T04:35:20.313Z,0.00
2022-11-10T04:36:20.291Z,0.00
2022-11-10T04:37:20.272Z,0.00
2022-11-10T04:38:20.270Z,0.00
2022-11-10T04:39:20.253Z,0.00
2022-11-10T04:40:20.260Z,0.00
2022-11-10T04:41:20.236Z,0.00
2022-11-10T04:42:20.218Z,0.00
2022-11-10T04:43:20.695Z,0.00
2022-11-10T04:44:20.209Z,0.00
2022-11-10T04:45:20.197Z,0.00
2022-11-10T04:46:20.180Z,0.00
2022-11-10T04:47:20.168Z,0.00
2022-11-10T04:48:20.155Z,0.00
2022-11-10T04:49:20.150Z,0.00
2022-11-10T04:50:20.152Z,0.00
2022-11-10T04:51:20.191Z,0.00
2022-11-10T04:52:20.106Z,0.00
2022-11-10T04:53:20.458Z,0.00
2022-11-10T04:54:20.097Z,0.00
2022-11-10T04:55:20.089Z,0.00
2022-11-10T04:56:20.068Z,0.00
2022-11-10T04:57:20.050Z,0.00
2022-11-10T04:58:20.045Z,0.00
2022-11-10T04:59:20.047Z,0.00
2022-11-10T05:00:20.048Z,0.00
2022-11-10T05:01:20.066Z,0.00
2022-11-10T05:02:19.995Z,0.00
2022-11-10T05:03:20.471Z,0.00
2022-11-10T05:04:19.980Z,0.00
2022-11-10T05:05:19.976Z,0.00
2022-11-10T05:06:19.955Z,0.00
2022-11-10T05:07:19.941Z,0.00
2022-11-10T05:08:19.928Z,0.00
2022-11-10T05:09:19.942Z,0.00
2022-11-10T05:10:19.940Z,0.00
2022-11-10T05:11:19.924Z,0.00
2022-11-10T05:12:22.480Z,0.00
2022-11-10T05:13:20.179Z,0.00
2022-11-10T05:14:19.863Z,0.00
2022-11-10T05:15:19.893Z,0.00
2022-11-10T05:16:19.838Z,0.00
2022-11-10T05:17:19.834Z,0.00
2022-11-10T05:18:19.817Z,0.00
2022-11-10T05:19:19.812Z,0.00
2022-11-10T05:20:19.824Z,0.00
2022-11-10T05:21:19.783Z,0.00
2022-11-10T05:22:19.777Z,0.00
2022-11-10T05:23:19.953Z,0.00
2022-11-10T05:24:19.749Z,0.00
2022-11-10T05:25:19.751Z,0.00
2022-11-10T05:26:19.743Z,0.00
2022-11-10T05:27:19.729Z,0.00
2022-11-10T05:28:19.714Z,0.00
2022-11-10T05:29:19.700Z,0.00
2022-11-10T05:30:19.702Z,0.00
2022-11-10T05:31:19.693Z,0.00
2022-11-10T05:32:19.658Z,0.00
2022-11-10T05:33:20.115Z,0.00
2022-11-10T05:34:19.735Z,0.00
2022-11-10T05:35:19.647Z,0.00
2022-11-10T05:36:19.619Z,0.00
2022-11-10T05:37:19.598Z,0.00
2022-11-10T05:38:19.611Z,0.00
2022-11-10T05:39:19.588Z,0.00
2022-11-10T05:40:19.588Z,0.00
2022-11-10T05:41:19.557Z,0.00
2022-11-10T05:42:19.589Z,0.00
2022-11-10T05:43:19.621Z,0.00
2022-11-10T05:44:19.522Z,0.00
2022-11-10T05:45:19.523Z,0.00
2022-11-10T05:46:19.509Z,0.00
2022-11-10T05:47:19.507Z,0.00
2022-11-10T05:48:19.480Z,0.00
2022-11-10T05:49:19.474Z,0.00
2022-11-10T05:50:19.476Z,0.00
2022-11-10T05:51:19.446Z,0.00
2022-11-10T05:52:19.433Z,0.00
2022-11-10T05:53:19.863Z,0.00
2022-11-10T05:54:19.410Z,0.00
2022-11-10T05:55:19.437Z,0.00
2022-11-10T05:56:19.390Z,0.00
2022-11-10T05:57:19.374Z,0.00
2022-11-10T05:58:19.364Z,0.00
2022-11-10T05:59:19.362Z,0.00
2022-11-10T06:00:19.359Z,0.00
2022-11-10T06:01:19.336Z,0.00
2022-11-10T06:02:19.330Z,0.00
2022-11-10T06:03:19.694Z,0.00
2022-11-10T06:04:19.300Z,0.00
2022-11-10T06:05:19.287Z,0.00
2022-11-10T06:06:19.294Z,0.00
2022-11-10T06:07:19.262Z,0.00
2022-11-10T06:08:19.257Z,0.00
2022-11-10T06:09:19.249Z,4.00
2022-11-10T06:10:19.235Z,4.00
2022-11-10T06:11:19.243Z,4.00
2022-11-10T06:12:19.213Z,0.00
2022-11-10T06:13:19.467Z,4.00
2022-11-10T06:14:19.215Z,4.00
2022-11-10T06:15:19.196Z,4.00
2022-11-10T06:16:19.172Z,8.00
2022-11-10T06:17:19.221Z,4.00
2022-11-10T06:18:19.178Z,8.00
2022-11-10T06:19:19.153Z,4.00
2022-11-10T06:20:19.151Z,8.00
2022-11-10T06:21:19.124Z,8.00
2022-11-10T06:22:19.096Z,12.00
2022-11-10T06:23:19.229Z,12.00
2022-11-10T06:24:19.069Z,16.00
2022-11-10T06:25:19.087Z,20.00
2022-11-10T06:26:19.064Z,20.00
2022-11-10T06:27:19.042Z,20.00
2022-11-10T06:28:19.055Z,24.00
2022-11-10T06:29:24.115Z,28.00
2022-11-10T06:30:20.003Z,32.00
2022-11-10T06:31:19.028Z,36.00
2022-11-10T06:32:19.520Z,40.00
2022-11-10T06:33:19.209Z,48.00
2022-11-10T06:34:18.963Z,52.00
2022-11-10T06:35:18.976Z,56.00
2022-11-10T06:36:18.973Z,64.00
2022-11-10T06:37:18.939Z,64.00
2022-11-10T06:38:18.917Z,72.00
2022-11-10T06:39:18.914Z,76.00
2022-11-10T06:40:18.898Z,84.00
2022-11-10T06:41:22.697Z,92.00
2022-11-10T06:42:19.881Z,100.00
2022-11-10T06:43:18.930Z,104.00
2022-11-10T06:44:18.845Z,112.00
2022-11-10T06:45:18.840Z,116.00
2022-11-10T06:46:18.819Z,120.00
2022-11-10T06:47:18.832Z,128.00
2022-11-10T06:48:18.816Z,140.00
2022-11-10T06:49:18.785Z,148.00
2022-11-10T06:50:18.782Z,160.00
2022-11-10T06:51:18.786Z,176.00
2022-11-10T06:52:18.773Z,188.00
2022-11-10T06:53:22.913Z,204.00
2022-11-10T06:54:19.729Z,220.00
2022-11-10T06:55:18.733Z,232.00
2022-11-10T06:56:18.714Z,248.00
2022-11-10T06:57:18.733Z,260.00
2022-11-10T06:58:18.687Z,276.00
2022-11-10T06:59:18.691Z,292.00
2022-11-10T07:00:18.665Z,308.00
2022-11-10T07:01:22.283Z,328.00
2022-11-10T07:02:18.657Z,356.00
2022-11-10T07:03:18.676Z,388.00
2022-11-10T07:04:20.324Z,432.00
2022-11-10T07:05:18.653Z,512.00
2022-11-10T07:06:18.597Z,616.00
2022-11-10T07:07:18.622Z,724.00
2022-11-10T07:08:18.573Z,768.00
2022-11-10T07:09:18.576Z,780.00
2022-11-10T07:10:18.565Z,824.00
2022-11-10T07:11:18.560Z,900.00
2022-11-10T07:12:18.569Z,976.00
2022-11-10T07:13:18.531Z,980.00
2022-11-10T07:14:18.528Z,964.00
2022-11-10T07:15:18.496Z,976.00
2022-11-10T07:16:24.169Z,1028.00
2022-11-10T07:17:19.488Z,1076.00
2022-11-10T07:18:18.502Z,1184.00
2022-11-10T07:19:18.459Z,1248.00
2022-11-10T07:20:18.453Z,1336.00
2022-11-10T07:21:18.477Z,1384.00
2022-11-10T07:22:18.440Z,1444.00
2022-11-10T07:23:18.441Z,1484.00
2022-11-10T07:24:18.403Z,1544.00
2022-11-10T07:25:18.406Z,1604.00
2022-11-10T07:26:18.391Z,1552.00
2022-11-10T07:27:18.401Z,1856.00
2022-11-10T07:28:18.368Z,1988.00
2022-11-10T07:29:18.347Z,2028.00
2022-11-10T07:30:18.340Z,2088.00
2022-11-10T07:31:18.325Z,2180.00
2022-11-10T07:32:18.332Z,2268.00
2022-11-10T07:33:18.304Z,2300.00
2022-11-10T07:34:18.325Z,2416.00
2022-11-10T07:35:18.272Z,2524.00
2022-11-10T07:36:18.262Z,2600.00
2022-11-10T07:37:18.278Z,2548.00
2022-11-10T07:38:18.256Z,1488.00
2022-11-10T07:39:18.249Z,928.00
2022-11-10T07:40:18.235Z,808.00
2022-11-10T07:41:18.213Z,744.00
2022-11-10T07:42:18.203Z,728.00
2022-11-10T07:43:18.184Z,740.00
2022-11-10T07:44:18.170Z,780.00
2022-11-10T07:45:18.166Z,852.00
2022-11-10T07:46:18.151Z,1220.00
2022-11-10T07:47:18.155Z,1072.00
2022-11-10T07:48:18.130Z,1316.00
2022-11-10T07:49:18.121Z,1292.00
2022-11-10T07:50:18.119Z,2584.00
2022-11-10T07:51:18.101Z,2988.00
2022-11-10T07:52:18.103Z,2864.00
2022-11-10T07:53:18.068Z,2700.00
2022-11-10T07:54:18.056Z,2640.00
2022-11-10T07:55:18.070Z,2524.00
2022-11-10T07:56:18.033Z,2376.00
2022-11-10T07:57:18.056Z,2192.00
2022-11-10T07:58:18.044Z,2008.00
2022-11-10T07:59:18.009Z,1860.00
2022-11-10T08:00:17.997Z,1772.00
2022-11-10T08:01:18.043Z,1716.00
2022-11-10T08:02:17.982Z,1648.00
2022-11-10T08:03:17.966Z,1580.00
2022-11-10T08:04:17.944Z,1504.00
2022-11-10T08:05:17.984Z,1444.00
2022-11-10T08:06:17.977Z,1400.00
2022-11-10T08:07:18.123Z,1380.00
2022-11-10T08:08:17.910Z,1376.00
2022-11-10T08:09:17.896Z,1372.00
2022-11-10T08:10:17.895Z,1336.00
2022-11-10T08:11:17.891Z,1296.00
2022-11-10T08:12:17.874Z,1284.00
2022-11-10T08:13:17.847Z,1284.00
2022-11-10T08:14:17.833Z,1272.00
2022-11-10T08:15:17.833Z,1272.00
2022-11-10T08:16:17.827Z,1268.00
2022-11-10T08:17:17.831Z,1256.00
2022-11-10T08:18:17.797Z,1256.00
2022-11-10T08:19:17.784Z,1252.00
2022-11-10T08:20:17.766Z,1252.00
2022-11-10T08:21:17.761Z,1264.00
2022-11-10T08:22:17.763Z,1260.00
2022-11-10T08:23:17.738Z,1252.00
2022-11-10T08:24:17.719Z,1248.00
2022-11-10T08:25:17.707Z,1248.00
2022-11-10T08:26:17.698Z,1236.00
2022-11-10T08:27:17.739Z,1260.00
2022-11-10T08:28:17.690Z,1268.00
2022-11-10T08:29:17.663Z,1272.00
2022-11-10T08:30:17.667Z,1280.00
2022-11-10T08:31:17.645Z,1288.00
2022-11-10T08:32:17.658Z,1288.00
2022-11-10T08:33:17.628Z,1292.00
2022-11-10T08:34:17.608Z,1296.00
2022-11-10T08:35:17.596Z,1280.00
2022-11-10T08:36:17.606Z,1260.00
2022-11-10T08:37:17.580Z,1292.00
2022-11-10T08:38:17.580Z,1308.00
2022-11-10T08:39:36.273Z,1316.00
2022-11-10T08:40:18.546Z,1316.00
2022-11-10T08:41:17.529Z,1308.00
2022-11-10T08:42:17.522Z,1276.00
2022-11-10T08:43:17.542Z,1296.00
2022-11-10T08:44:20.678Z,1300.00
2022-11-10T08:45:17.482Z,1304.00
2022-11-10T08:46:17.474Z,1312.00
2022-11-10T08:47:17.459Z,1324.00
2022-11-10T08:48:17.471Z,1340.00
2022-11-10T08:49:17.443Z,1360.00
2022-11-10T08:50:17.441Z,1380.00
2022-11-10T08:51:17.561Z,1420.00
2022-11-10T08:52:17.487Z,1468.00
2022-11-10T08:53:17.410Z,1472.00
2022-11-10T08:54:17.438Z,1480.00
2022-11-10T08:55:17.383Z,1496.00
2022-11-10T08:56:17.369Z,1532.00
2022-11-10T08:57:17.401Z,1600.00
2022-11-10T08:58:17.361Z,1660.00
2022-11-10T08:59:17.347Z,1628.00
2022-11-10T09:00:17.310Z,1468.00
2022-11-10T09:01:17.303Z,1496.00
2022-11-10T09:02:17.293Z,1488.00
2022-11-10T09:03:17.293Z,1520.00
2022-11-10T09:04:17.304Z,1620.00
2022-11-10T09:05:17.253Z,1580.00
2022-11-10T09:06:17.250Z,1576.00
2022-11-10T09:07:17.286Z,1584.00
2022-11-10T09:08:17.251Z,1648.00
2022-11-10T09:09:17.211Z,1688.00
2022-11-10T09:10:17.218Z,1820.00
2022-11-10T09:11:17.198Z,1920.00
2022-11-10T09:12:17.175Z,1948.00
2022-11-10T09:13:17.232Z,1968.00
2022-11-10T09:14:17.158Z,1972.00
2022-11-10T09:15:17.188Z,1980.00
2022-11-10T09:16:17.139Z,2000.00
2022-11-10T09:17:17.128Z,2056.00
2022-11-10T09:18:17.130Z,2172.00
2022-11-10T09:19:20.070Z,2320.00
2022-11-10T09:20:17.098Z,2476.00
2022-11-10T09:21:17.096Z,2524.00
2022-11-10T09:22:17.071Z,2900.00
2022-11-10T09:23:17.079Z,3184.00
2022-11-10T09:24:17.043Z,3324.00
2022-11-10T09:25:17.041Z,3140.00
2022-11-10T09:26:17.023Z,4056.00
2022-11-10T09:27:17.028Z,4080.00
2022-11-10T09:28:17.029Z,3536.00
2022-11-10T09:29:17.028Z,4336.00
2022-11-10T09:30:18.100Z,3472.00
2022-11-10T09:31:16.983Z,4636.00
2022-11-10T09:32:16.966Z,4760.00
2022-11-10T09:33:16.962Z,4856.00
2022-11-10T09:34:16.939Z,5016.00
2022-11-10T09:35:16.946Z,5172.00
2022-11-10T09:36:16.922Z,5324.00
2022-11-10T09:37:16.902Z,5628.00
2022-11-10T09:38:16.899Z,5756.00
2022-11-10T09:39:16.892Z,5956.00
2022-11-10T09:40:16.874Z,6300.00
2022-11-10T09:41:16.855Z,6364.00
2022-11-10T09:42:16.838Z,6504.00
2022-11-10T09:43:16.852Z,6668.00
2022-11-10T09:44:16.819Z,6808.00
2022-11-10T09:45:16.807Z,6904.00
2022-11-10T09:46:16.797Z,6860.00
2022-11-10T09:47:42.471Z,6852.00
2022-11-10T09:48:17.797Z,6944.00
2022-11-10T09:49:16.767Z,6960.00
2022-11-10T09:50:16.761Z,7044.00
2022-11-10T09:51:16.748Z,7040.00
2022-11-10T09:52:16.725Z,7088.00
2022-11-10T09:53:16.749Z,7120.00
2022-11-10T09:54:16.724Z,7152.00
2022-11-10T09:55:16.701Z,7160.00
2022-11-10T09:56:16.692Z,7244.00
2022-11-10T09:57:16.670Z,7248.00
2022-11-10T09:58:16.681Z,7280.00
2022-11-10T09:59:16.647Z,7292.00
2022-11-10T10:00:16.640Z,7280.00
2022-11-10T10:01:16.812Z,7292.00
2022-11-10T10:02:16.622Z,7312.00
2022-11-10T10:03:16.663Z,7348.00
2022-11-10T10:04:16.600Z,7344.00
2022-11-10T10:05:16.652Z,7336.00
2022-11-10T10:06:16.579Z,7364.00
2022-11-10T10:07:16.671Z,7320.00
2022-11-10T10:08:16.564Z,7240.00
2022-11-10T10:09:16.557Z,7336.00
2022-11-10T10:10:17.715Z,7352.00
2022-11-10T10:11:16.537Z,7304.00
2022-11-10T10:12:16.517Z,7320.00
2022-11-10T10:13:16.498Z,7356.00
2022-11-10T10:14:16.504Z,7336.00
2022-11-10T10:15:16.476Z,7324.00
2022-11-10T10:16:16.488Z,7396.00
2022-11-10T10:17:16.462Z,7584.00
2022-11-10T10:18:16.436Z,7672.00
2022-11-10T10:19:16.555Z,7584.00
2022-11-10T10:20:16.410Z,7512.00
2022-11-10T10:21:16.399Z,7528.00
2022-11-10T10:22:16.397Z,6836.00
2022-11-10T10:23:16.378Z,6968.00
2022-11-10T10:24:21.414Z,7088.00
2022-11-10T10:25:17.364Z,7528.00
2022-11-10T10:26:16.355Z,7484.00
2022-11-10T10:27:16.335Z,7244.00
2022-11-10T10:28:16.320Z,7136.00
2022-11-10T10:29:16.322Z,7156.00
2022-11-10T10:30:16.304Z,7116.00
2022-11-10T10:31:16.351Z,7020.00
2022-11-10T10:32:16.291Z,7068.00
2022-11-10T10:33:16.281Z,7032.00
2022-11-10T10:34:16.280Z,7072.00
2022-11-10T10:35:16.268Z,7076.00
2022-11-10T10:36:16.242Z,7072.00
2022-11-10T10:37:16.256Z,7044.00
2022-11-10T10:38:16.212Z,6976.00
2022-11-10T10:39:16.215Z,7028.00
2022-11-10T10:40:16.199Z,6984.00
2022-11-10T10:41:20.974Z,6936.00
2022-11-10T10:42:17.169Z,6940.00
2022-11-10T10:43:16.164Z,6844.00
2022-11-10T10:44:16.162Z,6908.00
2022-11-10T10:45:16.178Z,6960.00
2022-11-10T10:46:16.127Z,6964.00
2022-11-10T10:47:16.134Z,6976.00
2022-11-10T10:48:16.097Z,7004.00
2022-11-10T10:49:31.702Z,7008.00
2022-11-10T10:50:17.081Z,6968.00
2022-11-10T10:51:16.102Z,6920.00
2022-11-10T10:52:16.060Z,6932.00
2022-11-10T10:53:16.042Z,6976.00
2022-11-10T10:54:16.134Z,6936.00
2022-11-10T10:55:16.024Z,6968.00
2022-11-10T10:56:16.042Z,6988.00
2022-11-10T10:57:16.001Z,6956.00
2022-11-10T10:58:16.003Z,6952.00
2022-11-10T10:59:15.987Z,6992.00
2022-11-10T11:00:15.976Z,6992.00
2022-11-10T11:01:16.119Z,6992.00
2022-11-10T11:02:15.946Z,7008.00
2022-11-10T11:03:15.940Z,7012.00
2022-11-10T11:04:15.936Z,7020.00
2022-11-10T11:05:15.906Z,7020.00
2022-11-10T11:06:15.903Z,7012.00
2022-11-10T11:07:15.982Z,6968.00
2022-11-10T11:08:15.876Z,6956.00
2022-11-10T11:09:15.888Z,6932.00
2022-11-10T11:10:15.885Z,6908.00
2022-11-10T11:11:15.840Z,6916.00
2022-11-10T11:12:15.836Z,6840.00
2022-11-10T11:13:15.824Z,6828.00
2022-11-10T11:14:15.822Z,6832.00
2022-11-10T11:15:15.803Z,6824.00
2022-11-10T11:16:15.794Z,6800.00
2022-11-10T11:17:15.823Z,6760.00
2022-11-10T11:18:15.773Z,6764.00
2022-11-10T11:19:15.779Z,6768.00
2022-11-10T11:20:15.846Z,6744.00
2022-11-10T11:21:15.738Z,6776.00
2022-11-10T11:22:15.727Z,6720.00
2022-11-10T11:23:15.736Z,6684.00
2022-11-10T11:24:15.726Z,6672.00
2022-11-10T11:25:15.685Z,6628.00
2022-11-10T11:26:15.688Z,6680.00
2022-11-10T11:27:15.689Z,6680.00
2022-11-10T11:28:15.668Z,6656.00
2022-11-10T11:29:15.653Z,6700.00
2022-11-10T11:30:15.749Z,6764.00
2022-11-10T11:31:15.676Z,6876.00
2022-11-10T11:32:15.626Z,6928.00
2022-11-10T11:33:15.605Z,6924.00
2022-11-10T11:34:15.606Z,6972.00
2022-11-10T11:35:15.582Z,6876.00
2022-11-10T11:36:15.570Z,6764.00
2022-11-10T11:37:19.411Z,6952.00
2022-11-10T11:38:15.540Z,6836.00
2022-11-10T11:39:15.565Z,6768.00
2022-11-10T11:40:15.608Z,6776.00
2022-11-10T11:41:15.504Z,6732.00
2022-11-10T11:42:15.506Z,6700.00
2022-11-10T11:43:15.496Z,6748.00
2022-11-10T11:44:15.495Z,6728.00
2022-11-10T11:45:15.466Z,6700.00
2022-11-10T11:46:15.464Z,6732.00
2022-11-10T11:47:15.444Z,6740.00
2022-11-10T11:48:15.458Z,6708.00
2022-11-10T11:49:15.437Z,6716.00
2022-11-10T11:50:15.485Z,6524.00
2022-11-10T11:51:15.396Z,6476.00
2022-11-10T11:52:15.395Z,6616.00
2022-11-10T11:53:15.369Z,6664.00
2022-11-10T11:54:15.373Z,6828.00
2022-11-10T11:55:15.376Z,6704.00
2022-11-10T11:56:15.345Z,6284.00
2022-11-10T11:57:15.326Z,6096.00
2022-11-10T11:58:15.323Z,5988.00
2022-11-10T11:59:15.326Z,6000.00
2022-11-10T12:00:15.310Z,5856.00
2022-11-10T12:01:15.311Z,5692.00
2022-11-10T12:02:15.342Z,5604.00
2022-11-10T12:03:15.271Z,5596.00
2022-11-10T12:04:15.266Z,5636.00
2022-11-10T12:05:15.245Z,5532.00
2022-11-10T12:06:15.252Z,5832.00
2022-11-10T12:07:15.321Z,6480.00
2022-11-10T12:08:15.202Z,7292.00
2022-11-10T12:09:15.213Z,6924.00
2022-11-10T12:10:15.191Z,6240.00
2022-11-10T12:11:15.191Z,6148.00
2022-11-10T12:12:15.200Z,6216.00
2022-11-10T12:13:15.150Z,6236.00
2022-11-10T12:14:15.166Z,6124.00
2022-11-10T12:15:15.127Z,6108.00
2022-11-10T12:16:15.124Z,6080.00
2022-11-10T12:17:15.108Z,6032.00
2022-11-10T12:18:15.091Z,6000.00
2022-11-10T12:19:15.104Z,5948.00
2022-11-10T12:20:15.075Z,5928.00
2022-11-10T12:21:15.056Z,5936.00
2022-11-10T12:22:15.055Z,5936.00
2022-11-10T12:23:15.042Z,5932.00
2022-11-10T12:24:15.035Z,5880.00
2022-11-10T12:25:15.023Z,5840.00
2022-11-10T12:26:15.029Z,5648.00
2022-11-10T12:27:15.010Z,5844.00
2022-11-10T12:28:15.004Z,5824.00
2022-11-10T12:29:15.010Z,5812.00
2022-11-10T12:30:14.959Z,5768.00
2022-11-10T12:31:14.954Z,5740.00
2022-11-10T12:32:14.944Z,5748.00
2022-11-10T12:33:14.930Z,5684.00
2022-11-10T12:34:14.931Z,5588.00
2022-11-10T12:35:14.898Z,5576.00
2022-11-10T12:36:14.894Z,5640.00
2022-11-10T12:37:14.906Z,5636.00
2022-11-10T12:38:14.895Z,5616.00
2022-11-10T12:39:14.878Z,5588.00
2022-11-10T12:40:14.878Z,5572.00
2022-11-10T12:41:14.838Z,5516.00
2022-11-10T12:42:14.824Z,5488.00